sensor_id;sensor_type;location;lat;lon;timestamp;pressure;altitude;pressure_sealevel;temperature;humidity
498;BME280;39559;48.630;9.162;2023-04-08T00:00:33;97693.97;;;6.30;100.00
498;BME280;39559;48.630;9.162;2023-04-08T00:03:00;97695.44;;;6.03;100.00
498;BME280;39559;48.630;9.162;2023-04-08T00:05:25;97689.66;;;5.90;100.00
498;BME280;39559;48.630;9.162;2023-04-08T00:07:51;97694.38;;;5.68;100.00
498;BME280;39559;48.630;9.162;2023-04-08T00:10:17;97696.84;;;5.73;100.00
498;BME280;39559;48.630;9.162;2023-04-08T00:12:43;97694.25;;;5.74;100.00
498;BME280;39559;48.630;9.162;2023-04-08T00:15:08;97695.94;;;5.77;100.00
498;BME280;39559;48.630;9.162;2023-04-08T00:17:34;97696.75;;;5.79;100.00
498;BME280;39559;48.630;9.162;2023-04-08T00:20:00;97690.75;;;5.79;100.00
498;BME280;39559;48.630;9.162;2023-04-08T00:24:32;97700.16;;;5.80;100.00
498;BME280;39559;48.630;9.162;2023-04-08T00:26:58;97700.16;;;5.80;100.00
498;BME280;39559;48.630;9.162;2023-04-08T00:29:23;97700.16;;;5.81;100.00
498;BME280;39559;48.630;9.162;2023-04-08T00:31:49;97701.13;;;5.75;100.00
498;BME280;39559;48.630;9.162;2023-04-08T00:34:15;97694.16;;;5.81;100.00
498;BME280;39559;48.630;9.162;2023-04-08T00:36:41;97700.16;;;5.81;100.00
498;BME280;39559;48.630;9.162;2023-04-08T00:39:07;97694.16;;;5.81;100.00
498;BME280;39559;48.630;9.162;2023-04-08T00:41:33;97695.84;;;5.80;100.00
498;BME280;39559;48.630;9.162;2023-04-08T00:44:00;97694.13;;;5.82;100.00
498;BME280;39559;48.630;9.162;2023-04-08T00:48:31;97691.56;;;5.81;100.00
498;BME280;39559;48.630;9.162;2023-04-08T00:50:57;97695.78;;;5.85;100.00
498;BME280;39559;48.630;9.162;2023-04-08T00:53:23;97699.88;;;5.95;100.00
498;BME280;39559;48.630;9.162;2023-04-08T00:55:48;97706.66;;;6.01;100.00
498;BME280;39559;48.630;9.162;2023-04-08T00:58:17;97704.88;;;6.04;100.00
498;BME280;39559;48.630;9.162;2023-04-08T01:00:57;97703.00;;;6.11;100.00
498;BME280;39559;48.630;9.162;2023-04-08T01:03:56;97706.66;;;6.01;100.00
498;BME280;39559;48.630;9.162;2023-04-08T01:06:39;97709.63;;;6.23;100.00
498;BME280;39559;48.630;9.162;2023-04-08T01:09:11;97706.91;;;6.29;100.00
498;BME280;39559;48.630;9.162;2023-04-08T01:12:31;97710.44;;;6.25;100.00
498;BME280;39559;48.630;9.162;2023-04-08T01:15:07;97709.13;;;6.05;100.00
498;BME280;39559;48.630;9.162;2023-04-08T01:17:36;97717.81;;;6.01;100.00
498;BME280;39559;48.630;9.162;2023-04-08T01:20:03;97708.53;;;5.91;100.00
498;BME280;39559;48.630;9.162;2023-04-08T01:23:01;97710.16;;;5.96;100.00
498;BME280;39559;48.630;9.162;2023-04-08T01:25:32;97714.22;;;6.08;100.00
498;BME280;39559;48.630;9.162;2023-04-08T01:28:12;97713.09;;;6.22;100.00
498;BME280;39559;48.630;9.162;2023-04-08T01:30:40;97706.44;;;6.11;100.00
498;BME280;39559;48.630;9.162;2023-04-08T01:33:09;97707.91;;;6.23;100.00
498;BME280;39559;48.630;9.162;2023-04-08T01:36:29;97712.22;;;6.23;100.00
498;BME280;39559;48.630;9.162;2023-04-08T01:38:59;97708.13;;;6.12;100.00
498;BME280;39559;48.630;9.162;2023-04-08T01:41:26;97706.91;;;6.29;100.00
498;BME280;39559;48.630;9.162;2023-04-08T01:43:52;97703.47;;;6.30;100.00
498;BME280;39559;48.630;9.162;2023-04-08T01:46:19;97707.41;;;6.46;100.00
498;BME280;39559;48.630;9.162;2023-04-08T01:48:45;97710.94;;;6.42;100.00
498;BME280;39559;48.630;9.162;2023-04-08T01:51:14;97706.00;;;6.31;100.00
498;BME280;39559;48.630;9.162;2023-04-08T01:53:40;97705.88;;;6.36;100.00
498;BME280;39559;48.630;9.162;2023-04-08T01:56:09;97705.00;;;6.39;100.00
498;BME280;39559;48.630;9.162;2023-04-08T02:00:29;97701.84;;;6.26;100.00
498;BME280;39559;48.630;9.162;2023-04-08T02:02:57;97705.25;;;6.26;100.00
498;BME280;39559;48.630;9.162;2023-04-08T02:05:27;97699.16;;;6.29;100.00
498;BME280;39559;48.630;9.162;2023-04-08T02:07:52;97707.84;;;6.26;100.00
498;BME280;39559;48.630;9.162;2023-04-08T02:10:18;97706.78;;;6.35;100.00
498;BME280;39559;48.630;9.162;2023-04-08T02:12:44;97701.75;;;6.29;100.00
498;BME280;39559;48.630;9.162;2023-04-08T02:15:11;97710.59;;;6.19;100.00
498;BME280;39559;48.630;9.162;2023-04-08T02:17:54;97707.28;;;6.12;100.00
498;BME280;39559;48.630;9.162;2023-04-08T02:20:23;97705.78;;;6.00;100.00
498;BME280;39559;48.630;9.162;2023-04-08T02:24:28;97714.31;;;6.04;100.00
498;BME280;39559;48.630;9.162;2023-04-08T02:26:55;97710.91;;;6.03;100.00
498;BME280;39559;48.630;9.162;2023-04-08T02:29:21;97714.88;;;6.18;100.00
498;BME280;39559;48.630;9.162;2023-04-08T02:31:48;97717.75;;;6.06;100.00
498;BME280;39559;48.630;9.162;2023-04-08T02:34:16;97718.69;;;6.00;100.00
498;BME280;39559;48.630;9.162;2023-04-08T02:36:42;97708.16;;;6.11;100.00
498;BME280;39559;48.630;9.162;2023-04-08T02:39:10;97717.63;;;6.10;100.00
498;BME280;39559;48.630;9.162;2023-04-08T02:41:36;97708.16;;;6.11;100.00
498;BME280;39559;48.630;9.162;2023-04-08T02:44:01;97710.84;;;6.06;100.00
498;BME280;39559;48.630;9.162;2023-04-08T02:48:26;97712.63;;;6.03;100.00
498;BME280;39559;48.630;9.162;2023-04-08T02:50:51;97713.47;;;6.03;100.00
498;BME280;39559;48.630;9.162;2023-04-08T02:53:17;97709.22;;;6.02;100.00
498;BME280;39559;48.630;9.162;2023-04-08T02:55:42;97710.94;;;6.00;100.00
498;BME280;39559;48.630;9.162;2023-04-08T02:58:08;97712.63;;;6.03;100.00
498;BME280;39559;48.630;9.162;2023-04-08T03:00:33;97714.38;;;6.02;100.00
498;BME280;39559;48.630;9.162;2023-04-08T03:02:59;97713.53;;;6.00;100.00
498;BME280;39559;48.630;9.162;2023-04-08T03:05:25;97714.50;;;5.93;100.00
498;BME280;39559;48.630;9.162;2023-04-08T03:07:51;97711.38;;;5.79;100.00
498;BME280;39559;48.630;9.162;2023-04-08T03:12:25;97713.66;;;5.49;100.00
498;BME280;39559;48.630;9.162;2023-04-08T03:14:53;97711.88;;;5.51;100.00
498;BME280;39559;48.630;9.162;2023-04-08T03:17:19;97712.59;;;5.61;100.00
498;BME280;39559;48.630;9.162;2023-04-08T03:19:45;97719.88;;;5.38;100.00
498;BME280;39559;48.630;9.162;2023-04-08T03:22:12;97714.44;;;5.52;100.00
498;BME280;39559;48.630;9.162;2023-04-08T03:24:37;97718.28;;;5.30;100.00
498;BME280;39559;48.630;9.162;2023-04-08T03:27:03;97718.03;;;5.44;100.00
498;BME280;39559;48.630;9.162;2023-04-08T03:29:29;97712.06;;;5.42;100.00
498;BME280;39559;48.630;9.162;2023-04-08T03:31:54;97717.19;;;5.43;100.00
498;BME280;39559;48.630;9.162;2023-04-08T03:36:24;97714.59;;;5.43;100.00
498;BME280;39559;48.630;9.162;2023-04-08T03:38:51;97714.72;;;5.37;100.00
498;BME280;39559;48.630;9.162;2023-04-08T03:41:16;97712.34;;;5.26;100.00
498;BME280;39559;48.630;9.162;2023-04-08T03:43:43;97717.38;;;5.32;100.00
498;BME280;39559;48.630;9.162;2023-04-08T03:46:08;97719.22;;;5.26;100.00
498;BME280;39559;48.630;9.162;2023-04-08T03:48:34;97720.13;;;5.22;100.00
498;BME280;39559;48.630;9.162;2023-04-08T03:50:59;97720.78;;;5.34;100.00
498;BME280;39559;48.630;9.162;2023-04-08T03:53:25;97722.38;;;5.40;100.00
498;BME280;39559;48.630;9.162;2023-04-08T03:55:53;97718.78;;;5.49;100.00
498;BME280;39559;48.630;9.162;2023-04-08T04:00:23;97721.81;;;5.26;100.00
498;BME280;39559;48.630;9.162;2023-04-08T04:02:48;97717.72;;;5.12;100.00
498;BME280;39559;48.630;9.162;2023-04-08T04:05:14;97712.63;;;5.09;100.00
498;BME280;39559;48.630;9.162;2023-04-08T04:07:40;97717.91;;;5.02;100.00
498;BME280;39559;48.630;9.162;2023-04-08T04:10:05;97710.75;;;5.19;100.00
498;BME280;39559;48.630;9.162;2023-04-08T04:12:31;97718.09;;;5.41;100.00
498;BME280;39559;48.630;9.162;2023-04-08T04:14:57;97719.78;;;5.42;100.00
498;BME280;39559;48.630;9.162;2023-04-08T04:17:22;97720.09;;;5.25;100.00
498;BME280;39559;48.630;9.162;2023-04-08T04:19:48;97717.69;;;5.14;100.00
498;BME280;39559;48.630;9.162;2023-04-08T04:24:22;97713.38;;;5.16;100.00
498;BME280;39559;48.630;9.162;2023-04-08T04:26:48;97716.06;;;5.10;100.00
498;BME280;39559;48.630;9.162;2023-04-08T04:29:13;97722.72;;;5.22;100.00
498;BME280;39559;48.630;9.162;2023-04-08T04:31:39;97723.44;;;5.30;100.00
498;BME280;39559;48.630;9.162;2023-04-08T04:34:04;97724.31;;;5.27;100.00
498;BME280;39559;48.630;9.162;2023-04-08T04:36:30;97726.88;;;5.29;100.00
498;BME280;39559;48.630;9.162;2023-04-08T04:38:56;97726.06;;;5.27;100.00
498;BME280;39559;48.630;9.162;2023-04-08T04:41:22;97724.44;;;5.21;100.00
498;BME280;39559;48.630;9.162;2023-04-08T04:43:47;97723.66;;;5.16;100.00
498;BME280;39559;48.630;9.162;2023-04-08T04:48:21;97729.72;;;5.13;100.00
498;BME280;39559;48.630;9.162;2023-04-08T04:50:58;97729.63;;;5.18;100.00
498;BME280;39559;48.630;9.162;2023-04-08T04:53:24;97731.81;;;5.41;100.00
498;BME280;39559;48.630;9.162;2023-04-08T04:55:56;97735.34;;;5.35;100.00
498;BME280;39559;48.630;9.162;2023-04-08T04:58:22;97737.00;;;5.39;100.00
498;BME280;39559;48.630;9.162;2023-04-08T05:00:47;97745.00;;;5.24;100.00
498;BME280;39559;48.630;9.162;2023-04-08T05:03:13;97755.00;;;4.88;100.00
498;BME280;39559;48.630;9.162;2023-04-08T05:05:38;97760.66;;;5.12;100.00
498;BME280;39559;48.630;9.162;2023-04-08T05:08:04;97760.97;;;4.92;100.00
498;BME280;39559;48.630;9.162;2023-04-08T05:12:21;97761.09;;;4.84;100.00
498;BME280;39559;48.630;9.162;2023-04-08T05:14:46;97757.72;;;4.80;100.00
498;BME280;39559;48.630;9.162;2023-04-08T05:17:12;97761.97;;;4.81;100.00
498;BME280;39559;48.630;9.162;2023-04-08T05:19:37;97762.06;;;4.75;100.00
498;BME280;39559;48.630;9.162;2023-04-08T05:22:03;97758.44;;;4.87;100.00
498;BME280;39559;48.630;9.162;2023-04-08T05:24:29;97765.97;;;4.99;100.00
498;BME280;39559;48.630;9.162;2023-04-08T05:26:54;97760.88;;;4.96;100.00
498;BME280;39559;48.630;9.162;2023-04-08T05:29:22;97766.91;;;4.97;100.00
498;BME280;39559;48.630;9.162;2023-04-08T05:31:48;97763.44;;;4.98;100.00
498;BME280;39559;48.630;9.162;2023-04-08T05:36:23;97764.31;;;4.98;100.00
498;BME280;39559;48.630;9.162;2023-04-08T05:38:48;97767.63;;;5.04;100.00
498;BME280;39559;48.630;9.162;2023-04-08T05:41:14;97769.19;;;5.14;100.00
498;BME280;39559;48.630;9.162;2023-04-08T05:43:40;97777.56;;;5.25;100.00
498;BME280;39559;48.630;9.162;2023-04-08T05:46:06;97769.03;;;5.23;100.00
498;BME280;39559;48.630;9.162;2023-04-08T05:48:32;97770.47;;;5.39;100.00
498;BME280;39559;48.630;9.162;2023-04-08T05:50:58;97773.03;;;5.39;100.00
498;BME280;39559;48.630;9.162;2023-04-08T05:53:24;97770.31;;;5.49;100.00
498;BME280;39559;48.630;9.162;2023-04-08T05:55:50;97773.63;;;5.57;100.00
498;BME280;39559;48.630;9.162;2023-04-08T06:00:18;97779.91;;;5.87;100.00
498;BME280;39559;48.630;9.162;2023-04-08T06:02:45;97777.91;;;6.03;100.00
498;BME280;39559;48.630;9.162;2023-04-08T06:05:11;97791.13;;;5.85;100.00
498;BME280;39559;48.630;9.162;2023-04-08T06:07:36;97785.94;;;5.88;100.00
498;BME280;39559;48.630;9.162;2023-04-08T06:10:02;97795.91;;;6.08;100.00
498;BME280;39559;48.630;9.162;2023-04-08T06:12:29;97796.41;;;6.24;100.00
498;BME280;39559;48.630;9.162;2023-04-08T06:14:55;97796.16;;;6.38;100.00
498;BME280;39559;48.630;9.162;2023-04-08T06:17:21;97797.66;;;6.48;100.00
498;BME280;39559;48.630;9.162;2023-04-08T06:19:46;97803.50;;;6.56;100.00
498;BME280;39559;48.630;9.162;2023-04-08T06:24:18;97807.75;;;6.59;100.00
498;BME280;39559;48.630;9.162;2023-04-08T06:26:44;97810.75;;;6.39;100.00
498;BME280;39559;48.630;9.162;2023-04-08T06:29:09;97806.69;;;6.27;100.00
498;BME280;39559;48.630;9.162;2023-04-08T06:31:35;97809.22;;;6.28;100.00
498;BME280;39559;48.630;9.162;2023-04-08T06:34:01;97810.22;;;6.21;100.00
498;BME280;39559;48.630;9.162;2023-04-08T06:36:26;97812.63;;;6.30;100.00
498;BME280;39559;48.630;9.162;2023-04-08T06:38:52;97820.53;;;6.23;100.00
498;BME280;39559;48.630;9.162;2023-04-08T06:41:18;97816.22;;;6.22;100.00
498;BME280;39559;48.630;9.162;2023-04-08T06:43:43;97821.19;;;6.31;100.00
498;BME280;39559;48.630;9.162;2023-04-08T06:48:18;97823.69;;;6.37;100.00
498;BME280;39559;48.630;9.162;2023-04-08T06:50:46;97821.97;;;6.36;100.00
498;BME280;39559;48.630;9.162;2023-04-08T06:53:12;97827.03;;;6.41;100.00
498;BME280;39559;48.630;9.162;2023-04-08T06:55:37;97828.22;;;6.24;100.00
498;BME280;39559;48.630;9.162;2023-04-08T06:58:03;97829.16;;;6.20;100.00
498;BME280;39559;48.630;9.162;2023-04-08T07:00:28;97820.38;;;6.29;100.00
498;BME280;39559;48.630;9.162;2023-04-08T07:02:55;97822.09;;;6.30;100.00
498;BME280;39559;48.630;9.162;2023-04-08T07:05:21;97819.38;;;6.36;100.00
498;BME280;39559;48.630;9.162;2023-04-08T07:07:46;97826.00;;;6.49;100.00
498;BME280;39559;48.630;9.162;2023-04-08T07:12:17;97823.38;;;6.51;100.00
498;BME280;39559;48.630;9.162;2023-04-08T07:14:43;97829.34;;;6.53;100.00
498;BME280;39559;48.630;9.162;2023-04-08T07:17:08;97837.03;;;6.56;100.00
498;BME280;39559;48.630;9.162;2023-04-08T07:19:34;97832.47;;;6.69;100.00
498;BME280;39559;48.630;9.162;2023-04-08T07:22:00;97832.78;;;6.55;100.00
498;BME280;39559;48.630;9.162;2023-04-08T07:24:26;97844.19;;;6.42;100.00
498;BME280;39559;48.630;9.162;2023-04-08T07:26:52;97833.69;;;6.51;100.00
498;BME280;39559;48.630;9.162;2023-04-08T07:29:19;97846.41;;;6.60;100.00
498;BME280;39559;48.630;9.162;2023-04-08T07:31:45;97848.84;;;6.68;100.00
498;BME280;39559;48.630;9.162;2023-04-08T07:36:16;97851.44;;;6.68;100.00
498;BME280;39559;48.630;9.162;2023-04-08T07:38:42;97855.63;;;6.72;100.00
498;BME280;39559;48.630;9.162;2023-04-08T07:41:08;97851.69;;;6.95;100.00
498;BME280;39559;48.630;9.162;2023-04-08T07:43:33;97861.31;;;6.88;100.00
498;BME280;39559;48.630;9.162;2023-04-08T07:46:03;97864.91;;;6.81;100.00
498;BME280;39559;48.630;9.162;2023-04-08T07:48:30;97860.75;;;6.75;100.00
498;BME280;39559;48.630;9.162;2023-04-08T07:50:56;97860.75;;;6.75;100.00
498;BME280;39559;48.630;9.162;2023-04-08T07:53:21;97861.09;;;6.57;100.00
498;BME280;39559;48.630;9.162;2023-04-08T07:55:51;97861.84;;;6.62;100.00
498;BME280;39559;48.630;9.162;2023-04-08T08:00:15;97861.09;;;6.57;100.00
498;BME280;39559;48.630;9.162;2023-04-08T08:02:46;97859.97;;;6.70;100.00
498;BME280;39559;48.630;9.162;2023-04-08T08:05:12;97862.47;;;6.73;100.00
498;BME280;39559;48.630;9.162;2023-04-08T08:07:38;97857.31;;;6.73;100.00
498;BME280;39559;48.630;9.162;2023-04-08T08:10:03;97867.34;;;6.87;100.00
498;BME280;39559;48.630;9.162;2023-04-08T08:12:29;97865.28;;;7.03;100.00
498;BME280;39559;48.630;9.162;2023-04-08T08:14:55;97865.91;;;7.14;100.00
498;BME280;39559;48.630;9.162;2023-04-08T08:17:24;97862.22;;;7.24;100.00
498;BME280;39559;48.630;9.162;2023-04-08T08:19:50;97863.63;;;7.38;100.00
498;BME280;39559;48.630;9.162;2023-04-08T08:24:15;97864.09;;;7.55;100.00
498;BME280;39559;48.630;9.162;2023-04-08T08:26:41;97871.56;;;7.66;100.00
498;BME280;39559;48.630;9.162;2023-04-08T08:29:09;97865.47;;;7.68;100.00
498;BME280;39559;48.630;9.162;2023-04-08T08:31:35;97869.53;;;7.79;100.00
498;BME280;39559;48.630;9.162;2023-04-08T08:34:00;97867.81;;;7.78;100.00
498;BME280;39559;48.630;9.162;2023-04-08T08:36:26;97871.78;;;7.91;100.00
498;BME280;39559;48.630;9.162;2023-04-08T08:38:52;97872.38;;;8.02;100.00
498;BME280;39559;48.630;9.162;2023-04-08T08:41:19;97871.09;;;8.19;100.00
498;BME280;39559;48.630;9.162;2023-04-08T08:43:45;97879.00;;;8.13;100.00
498;BME280;39559;48.630;9.162;2023-04-08T08:48:14;97884.47;;;8.00;100.00
498;BME280;39559;48.630;9.162;2023-04-08T08:50:40;97884.81;;;7.88;100.00
498;BME280;39559;48.630;9.162;2023-04-08T08:53:05;97880.16;;;8.02;100.00
498;BME280;39559;48.630;9.162;2023-04-08T08:55:32;97879.50;;;7.93;100.00
498;BME280;39559;48.630;9.162;2023-04-08T08:58:01;97886.75;;;8.13;100.00
498;BME280;39559;48.630;9.162;2023-04-08T09:00:31;97888.38;;;8.17;100.00
498;BME280;39559;48.630;9.162;2023-04-08T09:03:16;97888.16;;;8.26;100.00
498;BME280;39559;48.630;9.162;2023-04-08T09:05:59;97883.22;;;8.50;100.00
498;BME280;39559;48.630;9.162;2023-04-08T09:08:30;97891.81;;;8.50;100.00
498;BME280;39559;48.630;9.162;2023-04-08T09:12:13;97891.22;;;8.40;100.00
498;BME280;39559;48.630;9.162;2023-04-08T09:14:39;97886.22;;;8.33;100.00
498;BME280;39559;48.630;9.162;2023-04-08T09:17:05;97892.84;;;8.44;100.00
498;BME280;39559;48.630;9.162;2023-04-08T09:19:30;97897.78;;;8.54;100.00
498;BME280;39559;48.630;9.162;2023-04-08T09:22:10;97884.94;;;8.80;100.00
498;BME280;39559;48.630;9.162;2023-04-08T09:24:36;97890.91;;;8.82;100.00
498;BME280;39559;48.630;9.162;2023-04-08T09:27:06;97892.47;;;8.88;100.00
498;BME280;39559;48.630;9.162;2023-04-08T09:29:32;97890.91;;;8.82;100.00
498;BME280;39559;48.630;9.162;2023-04-08T09:32:00;97890.69;;;9.18;100.00
498;BME280;39559;48.630;9.162;2023-04-08T09:36:14;97888.94;;;9.47;100.00
498;BME280;39559;48.630;9.162;2023-04-08T09:38:41;97884.38;;;9.55;100.00
498;BME280;39559;48.630;9.162;2023-04-08T09:41:07;97895.69;;;9.53;100.00
498;BME280;39559;48.630;9.162;2023-04-08T09:43:40;97886.41;;;9.72;100.00
498;BME280;39559;48.630;9.162;2023-04-08T09:46:10;97887.50;;;9.92;100.00
498;BME280;39559;48.630;9.162;2023-04-08T09:48:39;97887.91;;;10.31;100.00
498;BME280;39559;48.630;9.162;2023-04-08T09:51:11;97880.00;;;10.09;88.83
498;BME280;39559;48.630;9.162;2023-04-08T09:53:49;97883.88;;;9.97;91.33
498;BME280;39559;48.630;9.162;2023-04-08T09:56:18;97885.13;;;10.11;81.13
498;BME280;39559;48.630;9.162;2023-04-08T10:00:18;97876.56;;;10.59;90.04
498;BME280;39559;48.630;9.162;2023-04-08T10:05:30;97878.91;;;10.65;83.12
498;BME280;39559;48.630;9.162;2023-04-08T10:07:56;97882.84;;;10.77;84.82
498;BME280;39559;48.630;9.162;2023-04-08T10:10:25;97882.22;;;11.16;87.01
498;BME280;39559;48.630;9.162;2023-04-08T10:12:51;97880.50;;;10.69;78.70
498;BME280;39559;48.630;9.162;2023-04-08T10:15:32;97881.06;;;10.04;76.50
498;BME280;39559;48.630;9.162;2023-04-08T10:24:10;97881.97;;;10.76;73.04
498;BME280;39559;48.630;9.162;2023-04-08T10:26:43;97881.81;;;10.81;73.92
498;BME280;39559;48.630;9.162;2023-04-08T10:31:48;97879.44;;;10.26;69.64
498;BME280;39559;48.630;9.162;2023-04-08T10:34:15;97876.41;;;10.13;68.71
498;BME280;39559;48.630;9.162;2023-04-08T10:36:42;97878.75;;;10.46;72.18
498;BME280;39559;48.630;9.162;2023-04-08T10:39:07;97879.84;;;10.64;72.18
498;BME280;39559;48.630;9.162;2023-04-08T10:41:33;97875.81;;;10.55;74.62
498;BME280;39559;48.630;9.162;2023-04-08T10:43:58;97876.09;;;10.48;72.63
498;BME280;39559;48.630;9.162;2023-04-08T10:48:12;97881.34;;;10.21;73.08
498;BME280;39559;48.630;9.162;2023-04-08T10:50:38;97883.06;;;10.46;74.23
498;BME280;39559;48.630;9.162;2023-04-08T10:53:05;97873.38;;;10.51;69.58
498;BME280;39559;48.630;9.162;2023-04-08T10:55:32;97873.06;;;10.10;69.96
498;BME280;39559;48.630;9.162;2023-04-08T10:58:07;97876.81;;;10.01;73.22
498;BME280;39559;48.630;9.162;2023-04-08T11:00:35;97880.91;;;10.08;72.92
498;BME280;39559;48.630;9.162;2023-04-08T11:03:06;97882.47;;;9.87;73.34
498;BME280;39559;48.630;9.162;2023-04-08T11:05:33;97885.31;;;9.53;70.05
498;BME280;39559;48.630;9.162;2023-04-08T11:07:59;97881.16;;;9.47;72.27
498;BME280;39559;48.630;9.162;2023-04-08T11:12:07;97885.34;;;9.25;72.91
498;BME280;39559;48.630;9.162;2023-04-08T11:14:34;97884.84;;;9.13;71.41
498;BME280;39559;48.630;9.162;2023-04-08T11:16:59;97888.25;;;9.14;71.43
498;BME280;39559;48.630;9.162;2023-04-08T11:19:25;97883.50;;;9.28;74.04
498;BME280;39559;48.630;9.162;2023-04-08T11:21:52;97888.25;;;9.14;74.24
498;BME280;39559;48.630;9.162;2023-04-08T11:24:18;97879.38;;;8.93;72.56
498;BME280;39559;48.630;9.162;2023-04-08T11:26:46;97887.59;;;9.07;72.20
498;BME280;39559;48.630;9.162;2023-04-08T11:29:12;97886.19;;;9.25;74.33
498;BME280;39559;48.630;9.162;2023-04-08T11:31:42;97882.69;;;8.98;73.07
498;BME280;39559;48.630;9.162;2023-04-08T11:36:05;97880.34;;;9.18;72.63
498;BME280;39559;48.630;9.162;2023-04-08T11:38:32;97879.19;;;9.00;71.41
498;BME280;39559;48.630;9.162;2023-04-08T11:40:58;97882.56;;;9.02;70.30
498;BME280;39559;48.630;9.162;2023-04-08T11:43:25;97878.03;;;9.37;72.67
498;BME280;39559;48.630;9.162;2023-04-08T11:45:50;97886.19;;;9.25;74.44
498;BME280;39559;48.630;9.162;2023-04-08T11:48:16;97880.75;;;9.61;76.28
498;BME280;39559;48.630;9.162;2023-04-08T11:50:43;97877.41;;;9.57;74.26
498;BME280;39559;48.630;9.162;2023-04-08T11:53:24;97883.72;;;9.49;74.60
498;BME280;39559;48.630;9.162;2023-04-08T11:55:50;97879.88;;;9.34;71.20
498;BME280;39559;48.630;9.162;2023-04-08T12:00:05;97881.97;;;9.22;70.69
498;BME280;39559;48.630;9.162;2023-04-08T12:02:31;97885.72;;;9.12;71.25
498;BME280;39559;48.630;9.162;2023-04-08T12:04:56;97889.72;;;9.22;74.09
498;BME280;39559;48.630;9.162;2023-04-08T12:07:22;97877.56;;;9.51;71.78
498;BME280;39559;48.630;9.162;2023-04-08T12:09:47;97882.19;;;9.43;72.72
498;BME280;39559;48.630;9.162;2023-04-08T12:12:13;97877.88;;;9.42;73.93
498;BME280;39559;48.630;9.162;2023-04-08T12:14:39;97880.34;;;9.47;71.94
498;BME280;39559;48.630;9.162;2023-04-08T12:17:04;97881.25;;;9.17;73.94
498;BME280;39559;48.630;9.162;2023-04-08T12:19:30;97877.25;;;9.35;75.82
498;BME280;39559;48.630;9.162;2023-04-08T12:24:02;97885.09;;;9.32;76.27
498;BME280;39559;48.630;9.162;2023-04-08T12:26:27;97888.41;;;9.37;79.20
498;BME280;39559;48.630;9.162;2023-04-08T12:28:53;97883.88;;;9.44;76.82
498;BME280;39559;48.630;9.162;2023-04-08T12:31:18;97888.16;;;9.45;74.87
498;BME280;39559;48.630;9.162;2023-04-08T12:33:44;97896.94;;;9.41;77.32
498;BME280;39559;48.630;9.162;2023-04-08T12:36:09;97889.78;;;9.48;77.43
498;BME280;39559;48.630;9.162;2023-04-08T12:38:35;97887.84;;;9.54;75.36
498;BME280;39559;48.630;9.162;2023-04-08T12:41:02;97887.78;;;9.57;78.83
498;BME280;39559;48.630;9.162;2023-04-08T12:43:27;97886.69;;;9.65;80.41
498;BME280;39559;48.630;9.162;2023-04-08T12:47:59;97878.50;;;9.50;82.78
498;BME280;39559;48.630;9.162;2023-04-08T12:50:25;97890.63;;;9.21;82.04
498;BME280;39559;48.630;9.162;2023-04-08T12:52:50;97890.53;;;9.25;87.36
498;BME280;39559;48.630;9.162;2023-04-08T12:55:16;97884.91;;;9.10;84.43
498;BME280;39559;48.630;9.162;2023-04-08T12:57:43;97886.78;;;9.05;84.24
498;BME280;39559;48.630;9.162;2023-04-08T13:00:09;97881.88;;;8.96;83.99
498;BME280;39559;48.630;9.162;2023-04-08T13:02:35;97881.31;;;8.86;79.59
498;BME280;39559;48.630;9.162;2023-04-08T13:05:01;97885.63;;;8.86;82.46
498;BME280;39559;48.630;9.162;2023-04-08T13:07:26;97887.91;;;8.96;78.85
498;BME280;39559;48.630;9.162;2023-04-08T13:11:58;97891.69;;;8.86;79.41
498;BME280;39559;48.630;9.162;2023-04-08T13:14:24;97890.19;;;8.77;82.62
498;BME280;39559;48.630;9.162;2023-04-08T13:16:49;97888.75;;;8.67;84.65
498;BME280;39559;48.630;9.162;2023-04-08T13:19:15;97883.50;;;8.70;82.61
498;BME280;39559;48.630;9.162;2023-04-08T13:21:41;97883.41;;;8.73;80.90
498;BME280;39559;48.630;9.162;2023-04-08T13:24:06;97888.09;;;8.60;79.93
498;BME280;39559;48.630;9.162;2023-04-08T13:26:32;97890.44;;;8.70;82.88
498;BME280;39559;48.630;9.162;2023-04-08T13:28:57;97890.63;;;8.62;86.37
498;BME280;39559;48.630;9.162;2023-04-08T13:31:23;97893.22;;;8.62;88.70
498;BME280;39559;48.630;9.162;2023-04-08T13:35:55;97893.16;;;8.63;89.18
498;BME280;39559;48.630;9.162;2023-04-08T13:38:21;97897.53;;;8.61;86.64
498;BME280;39559;48.630;9.162;2023-04-08T13:40:47;97893.69;;;8.45;84.21
498;BME280;39559;48.630;9.162;2023-04-08T13:43:12;97898.91;;;8.43;85.26
498;BME280;39559;48.630;9.162;2023-04-08T13:45:38;97893.16;;;8.63;89.59
498;BME280;39559;48.630;9.162;2023-04-08T13:48:04;97892.16;;;8.69;86.64
498;BME280;39559;48.630;9.162;2023-04-08T13:50:30;97885.38;;;8.65;84.84
498;BME280;39559;48.630;9.162;2023-04-08T13:52:55;97887.69;;;8.74;87.25
498;BME280;39559;48.630;9.162;2023-04-08T13:55:21;97891.22;;;8.72;82.66
498;BME280;39559;48.630;9.162;2023-04-08T13:59:53;97893.16;;;8.63;81.24
498;BME280;39559;48.630;9.162;2023-04-08T14:02:19;97888.72;;;8.69;80.09
498;BME280;39559;48.630;9.162;2023-04-08T14:04:45;97886.63;;;8.81;79.38
498;BME280;39559;48.630;9.162;2023-04-08T14:07:12;97894.06;;;8.62;79.55
498;BME280;39559;48.630;9.162;2023-04-08T14:09:38;97881.03;;;8.95;79.34
498;BME280;39559;48.630;9.162;2023-04-08T14:12:03;97889.66;;;8.96;80.39
498;BME280;39559;48.630;9.162;2023-04-08T14:14:29;97884.72;;;8.88;80.51
498;BME280;39559;48.630;9.162;2023-04-08T14:16:55;97889.97;;;8.85;79.99
498;BME280;39559;48.630;9.162;2023-04-08T14:19:21;97890.97;;;8.81;81.46
498;BME280;39559;48.630;9.162;2023-04-08T14:23:52;97886.97;;;8.99;79.42
498;BME280;39559;48.630;9.162;2023-04-08T14:26:17;97890.84;;;8.84;81.50
498;BME280;39559;48.630;9.162;2023-04-08T14:28:43;97884.53;;;8.64;80.72
498;BME280;39559;48.630;9.162;2023-04-08T14:31:09;97890.13;;;8.80;78.88
498;BME280;39559;48.630;9.162;2023-04-08T14:33:34;97891.22;;;9.01;82.23
498;BME280;39559;48.630;9.162;2023-04-08T14:36:00;97883.91;;;8.86;79.83
498;BME280;39559;48.630;9.162;2023-04-08T14:38:26;97897.50;;;8.93;76.47
498;BME280;39559;48.630;9.162;2023-04-08T14:40:51;97897.16;;;9.05;77.21